createdAt,value
2018-04-17T00:00:20.813Z,11.70
2018-04-17T00:02:49.223Z,11.70
2018-04-17T00:05:17.533Z,11.70
2018-04-17T00:07:49.448Z,11.70
2018-04-17T00:10:17.784Z,11.60
2018-04-17T00:12:46.184Z,11.70
2018-04-17T00:15:14.548Z,11.60
2018-04-17T00:17:42.945Z,11.60
2018-04-17T00:20:12.582Z,11.40
2018-04-17T00:22:41.881Z,11.40
2018-04-17T00:25:11.057Z,11.40
2018-04-17T00:27:39.477Z,11.30
2018-04-17T00:30:07.809Z,11.40
2018-04-17T00:32:36.168Z,11.40
2018-04-17T00:35:04.486Z,11.40
2018-04-17T00:37:32.896Z,11.40
2018-04-17T00:40:01.224Z,11.40
2018-04-17T00:42:29.541Z,11.50
2018-04-17T00:44:57.902Z,11.50
2018-04-17T00:47:26.235Z,11.40
2018-04-17T00:49:54.581Z,11.40
2018-04-17T00:52:22.963Z,11.30
2018-04-17T00:54:51.314Z,11.40
2018-04-17T00:57:19.648Z,11.30
2018-04-17T00:59:48.011Z,11.30
2018-04-17T01:02:16.353Z,11.20
2018-04-17T01:04:44.681Z,11.20
2018-04-17T01:07:13.052Z,11.20
2018-04-17T01:09:43.761Z,11.20
2018-04-17T01:12:12.130Z,11.20
2018-04-17T01:14:40.490Z,11.10
2018-04-17T01:17:08.839Z,11.10
2018-04-17T01:19:37.265Z,11.10
2018-04-17T01:22:05.624Z,11.10
2018-04-17T01:24:33.972Z,11.10
2018-04-17T01:27:02.289Z,11.10
2018-04-17T01:29:30.708Z,11.10
2018-04-17T01:31:59.027Z,11.10
2018-04-17T01:34:27.353Z,11.10
2018-04-17T01:36:59.512Z,11.10
2018-04-17T01:39:27.850Z,10.90
2018-04-17T01:41:57.229Z,10.90
2018-04-17T01:44:25.537Z,10.90
2018-04-17T01:46:53.934Z,10.90
2018-04-17T01:49:23.319Z,10.80
2018-04-17T01:51:52.908Z,10.80
2018-04-17T01:54:21.219Z,10.80
2018-04-17T01:56:48.843Z,10.80
2018-04-17T01:59:17.185Z,10.80
2018-04-17T02:01:45.490Z,10.70
2018-04-17T02:04:13.888Z,10.80
2018-04-17T02:06:42.215Z,10.70
2018-04-17T02:09:10.958Z,10.60
2018-04-17T02:11:38.620Z,10.60
2018-04-17T02:14:06.980Z,10.50
2018-04-17T02:16:35.405Z,10.60
2018-04-17T02:19:03.774Z,10.60
2018-04-17T02:21:37.843Z,10.60
2018-04-17T02:24:06.210Z,10.60
2018-04-17T02:26:34.568Z,10.70
2018-04-17T02:29:02.912Z,10.70
2018-04-17T02:31:31.313Z,10.70
2018-04-17T02:33:59.659Z,10.70
2018-04-17T02:36:29.034Z,10.60
2018-04-17T02:38:57.376Z,10.60
2018-04-17T02:41:25.755Z,10.50
2018-04-17T02:43:54.124Z,10.50
2018-04-17T02:46:22.468Z,10.40
2018-04-17T02:48:51.598Z,10.50
2018-04-17T02:51:20.029Z,10.50
2018-04-17T02:53:50.840Z,10.50
2018-04-17T02:56:19.165Z,10.40
2018-04-17T02:58:47.513Z,10.40
2018-04-17T03:01:15.877Z,10.30
2018-04-17T03:03:44.211Z,10.30
2018-04-17T03:06:12.661Z,10.30
2018-04-17T03:08:42.224Z,10.20
2018-04-17T03:11:11.463Z,10.30
2018-04-17T03:13:40.746Z,10.20
2018-04-17T03:16:10.691Z,10.20
2018-04-17T03:18:40.243Z,10.30
2018-04-17T03:21:08.589Z,10.30
2018-04-17T03:23:36.930Z,10.30
2018-04-17T03:26:10.290Z,10.20
2018-04-17T03:28:38.656Z,10.20
2018-04-17T03:31:12.822Z,10.20
2018-04-17T03:33:42.454Z,10.20
2018-04-17T03:36:12.036Z,10.20
2018-04-17T03:38:40.358Z,10.20
2018-04-17T03:41:08.685Z,10.20
2018-04-17T03:43:37.028Z,10.10
2018-04-17T03:46:05.385Z,10.10
2018-04-17T03:48:33.761Z,10.10
2018-04-17T03:51:02.137Z,10.00
2018-04-17T03:53:30.458Z,10.10
2018-04-17T03:55:58.806Z,10.00
2018-04-17T03:58:27.181Z,10.00
2018-04-17T04:00:55.508Z,10.00
2018-04-17T04:03:23.861Z,10.00
2018-04-17T04:05:55.610Z,10.00
2018-04-17T04:08:23.968Z,9.90
2018-04-17T04:10:52.524Z,9.90
2018-04-17T04:13:20.905Z,9.90
2018-04-17T04:15:52.729Z,9.90
2018-04-17T04:18:32.973Z,9.80
2018-04-17T04:21:14.335Z,9.80
2018-04-17T04:24:00.700Z,9.80
2018-04-17T04:26:31.865Z,9.80
2018-04-17T04:29:00.209Z,9.80
2018-04-17T04:31:28.650Z,9.80
2018-04-17T04:33:56.964Z,9.80
2018-04-17T04:36:25.286Z,9.80
2018-04-17T04:38:53.620Z,9.80
2018-04-17T04:41:23.311Z,9.90
2018-04-17T04:43:52.641Z,9.90
2018-04-17T04:46:21.651Z,9.80
2018-04-17T04:48:50.026Z,9.80
2018-04-17T04:51:19.328Z,9.80
2018-04-17T04:53:47.660Z,9.80
2018-04-17T04:56:15.984Z,9.80
2018-04-17T04:58:44.386Z,9.80
2018-04-17T05:01:12.696Z,9.70
2018-04-17T05:03:42.346Z,9.70
2018-04-17T05:06:12.054Z,9.80
2018-04-17T05:08:40.469Z,9.70
2018-04-17T05:11:08.819Z,9.80
2018-04-17T05:13:38.202Z,9.70
2018-04-17T05:16:06.554Z,9.70
2018-04-17T05:18:34.894Z,9.70
2018-04-17T05:21:03.265Z,9.80
2018-04-17T05:23:33.690Z,9.80
2018-04-17T05:26:02.078Z,9.90
2018-04-17T05:28:30.450Z,9.90
2018-04-17T05:30:58.816Z,10.00
2018-04-17T05:33:27.130Z,9.90
2018-04-17T05:35:55.477Z,9.80
2018-04-17T05:38:23.805Z,9.90
2018-04-17T05:40:53.466Z,9.80
2018-04-17T05:43:23.048Z,9.90
2018-04-17T05:45:51.375Z,9.80
2018-04-17T05:48:19.664Z,9.90
2018-04-17T05:50:48.072Z,9.90
2018-04-17T05:53:16.849Z,10.00
2018-04-17T05:55:45.239Z,10.00
2018-04-17T05:58:13.493Z,10.10
2018-04-17T06:00:41.882Z,10.20
2018-04-17T06:03:11.017Z,10.20
2018-04-17T06:05:39.974Z,10.30
2018-04-17T06:08:08.243Z,10.30
2018-04-17T06:10:40.656Z,10.30
2018-04-17T06:13:08.929Z,10.40
2018-04-17T06:15:41.808Z,10.40
2018-04-17T06:18:10.934Z,10.50
2018-04-17T06:20:40.011Z,10.60
2018-04-17T06:23:08.305Z,10.70
2018-04-17T06:25:36.583Z,10.70
2018-04-17T06:28:05.850Z,10.70
2018-04-17T06:30:34.118Z,10.80
2018-04-17T06:33:02.435Z,10.80
2018-04-17T06:35:30.739Z,10.90
2018-04-17T06:37:59.052Z,11.00
2018-04-17T06:40:27.313Z,11.00
2018-04-17T06:42:55.615Z,11.10
2018-04-17T06:45:23.883Z,11.20
2018-04-17T06:47:53.203Z,11.40
2018-04-17T06:50:21.523Z,11.40
2018-04-17T06:52:49.862Z,11.50
2018-04-17T06:55:18.069Z,11.40
2018-04-17T06:57:46.362Z,11.50
2018-04-17T07:00:14.623Z,11.60
2018-04-17T07:02:42.925Z,11.70
2018-04-17T07:05:11.841Z,11.80
2018-04-17T07:07:39.375Z,11.80
2018-04-17T07:10:07.637Z,12.00
2018-04-17T07:12:35.155Z,12.00
2018-04-17T07:15:03.474Z,12.20
2018-04-17T07:17:31.740Z,12.30
2018-04-17T07:20:00.007Z,12.30
2018-04-17T07:22:28.304Z,12.40
2018-04-17T07:24:56.580Z,12.50
2018-04-17T07:27:24.866Z,12.60
2018-04-17T07:29:53.527Z,12.60
2018-04-17T07:32:22.936Z,12.80
2018-04-17T07:34:52.188Z,12.80
2018-04-17T07:37:19.715Z,12.80
2018-04-17T07:39:47.973Z,13.10
2018-04-17T07:42:16.286Z,13.10
2018-04-17T07:44:44.540Z,13.30
2018-04-17T07:47:30.921Z,13.20
2018-04-17T07:49:59.223Z,13.40
2018-04-17T07:52:27.487Z,13.50
2018-04-17T07:54:55.806Z,13.50
2018-04-17T07:57:24.057Z,13.60
2018-04-17T07:59:53.180Z,13.70
2018-04-17T08:02:21.498Z,13.80
2018-04-17T08:04:49.796Z,14.00
2018-04-17T08:07:18.065Z,14.00
2018-04-17T08:09:46.332Z,14.10
2018-04-17T08:12:14.951Z,14.30
2018-04-17T08:14:43.220Z,14.30
2018-04-17T08:17:11.904Z,14.40
2018-04-17T08:19:40.742Z,14.60
2018-04-17T08:22:09.033Z,14.60
2018-04-17T08:24:37.335Z,14.70
2018-04-17T08:27:05.640Z,14.80
2018-04-17T08:29:33.908Z,14.90
2018-04-17T08:32:02.177Z,15.00
2018-04-17T08:34:31.093Z,15.10
2018-04-17T08:36:59.427Z,15.20
2018-04-17T08:39:27.733Z,15.40
2018-04-17T08:41:56.036Z,15.60
2018-04-17T08:44:24.315Z,15.70
2018-04-17T08:46:52.605Z,15.80
2018-04-17T08:49:20.911Z,16.00
2018-04-17T08:51:49.232Z,16.10
2018-04-17T08:54:17.544Z,16.10
2018-04-17T08:56:45.854Z,16.20
2018-04-17T08:59:14.156Z,16.30
2018-04-17T09:01:41.832Z,16.30
2018-04-17T09:04:11.185Z,16.60
2018-04-17T09:06:39.482Z,16.70
2018-04-17T09:09:07.794Z,16.90
2018-04-17T09:11:36.056Z,17.00
2018-04-17T09:14:04.345Z,17.10
2018-04-17T09:16:32.646Z,17.20
2018-04-17T09:19:00.940Z,17.50
2018-04-17T09:21:29.193Z,17.40
2018-04-17T09:23:57.577Z,17.50
2018-04-17T09:26:25.848Z,17.60
2018-04-17T09:28:54.907Z,17.80
2018-04-17T09:31:23.196Z,17.90
2018-04-17T09:33:51.494Z,17.90
2018-04-17T09:36:19.803Z,18.00
2018-04-17T09:38:48.078Z,18.20
2018-04-17T09:41:16.382Z,18.10
2018-04-17T09:43:44.648Z,18.20
2018-04-17T09:46:12.969Z,18.20
2018-04-17T09:48:42.048Z,18.30
2018-04-17T09:51:10.339Z,18.40
2018-04-17T09:53:38.653Z,18.30
2018-04-17T09:56:06.928Z,18.30
2018-04-17T09:58:35.232Z,18.30
2018-04-17T10:01:03.514Z,18.20
2018-04-17T10:03:31.820Z,18.40
2018-04-17T10:06:00.081Z,18.40
2018-04-17T10:08:27.594Z,18.40
2018-04-17T10:10:55.891Z,18.70
2018-04-17T10:13:24.203Z,18.70
2018-04-17T10:15:52.473Z,18.80
2018-04-17T10:18:21.790Z,19.00
2018-04-17T10:20:50.082Z,19.00
2018-04-17T10:23:18.396Z,19.20
2018-04-17T10:25:46.702Z,19.20
2018-04-17T10:28:14.967Z,19.40
2018-04-17T10:30:43.260Z,19.40
2018-04-17T10:33:12.899Z,19.50
2018-04-17T10:35:42.234Z,19.40
2018-04-17T10:38:11.110Z,19.40
2018-04-17T10:40:39.371Z,19.30
2018-04-17T10:43:07.665Z,19.40
2018-04-17T10:45:35.987Z,19.50
2018-04-17T10:48:04.277Z,19.50
2018-04-17T10:50:32.565Z,19.70
2018-04-17T10:53:00.852Z,19.90
2018-04-17T10:55:29.142Z,20.00
2018-04-17T10:57:57.446Z,20.10
2018-04-17T11:00:25.721Z,20.30
2018-04-17T11:02:54.458Z,20.10
2018-04-17T11:05:22.750Z,20.00
2018-04-17T11:07:51.764Z,20.20
2018-04-17T11:10:20.044Z,20.20
2018-04-17T11:12:48.325Z,20.10
2018-04-17T11:15:16.621Z,20.30
2018-04-17T11:17:44.944Z,20.50
2018-04-17T11:20:13.234Z,20.70
2018-04-17T11:22:41.509Z,20.70
2018-04-17T11:25:11.102Z,20.60
2018-04-17T11:27:38.626Z,20.60
2018-04-17T11:30:06.934Z,20.70
2018-04-17T11:32:35.208Z,20.90
2018-04-17T11:35:03.502Z,20.80
2018-04-17T11:37:31.059Z,20.80
2018-04-17T11:39:58.575Z,20.80
2018-04-17T11:42:26.900Z,20.70
2018-04-17T11:44:55.213Z,20.80
2018-04-17T11:47:23.488Z,20.80
2018-04-17T11:49:52.891Z,20.70
2018-04-17T11:52:22.028Z,20.80
2018-04-17T11:54:50.900Z,20.90
2018-04-17T11:57:19.206Z,21.10
2018-04-17T11:59:47.489Z,21.10
2018-04-17T12:02:15.829Z,21.00
2018-04-17T12:04:44.098Z,21.00
2018-04-17T12:07:12.420Z,20.90
2018-04-17T12:09:41.946Z,20.90
2018-04-17T12:12:11.345Z,21.00
2018-04-17T12:14:40.652Z,21.10
2018-04-17T12:17:08.940Z,21.10
2018-04-17T12:19:44.091Z,21.10
2018-04-17T12:22:11.607Z,21.10
2018-04-17T12:24:47.962Z,21.10
2018-04-17T12:27:16.226Z,21.10
2018-04-17T12:29:44.530Z,21.10
2018-04-17T12:32:12.792Z,21.30
2018-04-17T12:34:41.418Z,21.40
2018-04-17T12:37:10.858Z,21.60
2018-04-17T12:39:40.850Z,21.60
2018-04-17T12:42:09.974Z,21.40
2018-04-17T12:44:38.297Z,21.30
2018-04-17T12:47:05.789Z,21.30
2018-04-17T12:49:34.096Z,21.50
2018-04-17T12:52:01.647Z,21.50
2018-04-17T12:54:29.923Z,21.50
2018-04-17T12:56:58.197Z,21.40
2018-04-17T12:59:25.746Z,21.30
2018-04-17T13:01:54.003Z,21.40
2018-04-17T13:04:23.589Z,21.50
2018-04-17T13:06:53.018Z,21.60
2018-04-17T13:09:22.188Z,21.60
2018-04-17T13:11:51.033Z,21.70
2018-04-17T13:14:21.084Z,21.50
2018-04-17T13:16:49.376Z,21.50
2018-04-17T13:19:21.740Z,21.40
2018-04-17T13:21:50.181Z,21.20
2018-04-17T13:24:21.868Z,21.40
2018-04-17T13:26:50.159Z,21.60
2018-04-17T13:29:19.420Z,21.60
2018-04-17T13:31:47.701Z,21.70
2018-04-17T13:34:19.817Z,21.70
2018-04-17T13:36:48.119Z,21.90
2018-04-17T13:39:16.393Z,22.00
2018-04-17T13:41:44.701Z,22.20
2018-04-17T13:44:13.011Z,22.10
2018-04-17T13:46:42.810Z,22.20
2018-04-17T13:49:12.281Z,22.10
2018-04-17T13:51:41.433Z,22.00
2018-04-17T13:54:10.815Z,22.20
2018-04-17T13:56:39.056Z,22.30
2018-04-17T13:59:07.351Z,22.40
2018-04-17T14:01:38.543Z,22.40
2018-04-17T14:04:06.839Z,22.30
2018-04-17T14:06:35.116Z,22.50
2018-04-17T14:09:03.455Z,22.50
2018-04-17T14:11:41.911Z,22.60
2018-04-17T14:14:12.228Z,22.60
2018-04-17T14:16:40.994Z,22.60
2018-04-17T14:19:10.228Z,22.60
2018-04-17T14:21:38.509Z,22.50
2018-04-17T14:24:07.738Z,22.50
2018-04-17T14:26:36.036Z,22.50
2018-04-17T14:29:04.313Z,22.30
2018-04-17T14:31:32.596Z,22.30
2018-04-17T14:34:00.880Z,22.40
2018-04-17T14:36:29.188Z,22.40
2018-04-17T14:39:02.738Z,22.40
2018-04-17T14:41:30.272Z,22.40
2018-04-17T14:43:58.551Z,22.20
2018-04-17T14:46:26.865Z,22.10
2018-04-17T14:48:55.122Z,22.10
2018-04-17T14:51:23.399Z,22.20
2018-04-17T14:53:53.006Z,22.10
2018-04-17T14:56:22.156Z,22.20
2018-04-17T14:58:51.236Z,22.20
2018-04-17T15:01:19.504Z,22.10
2018-04-17T15:03:47.810Z,22.10
2018-04-17T15:06:15.321Z,22.10
2018-04-17T15:08:43.636Z,22.10
2018-04-17T15:11:11.949Z,22.00
2018-04-17T15:13:44.548Z,21.70
2018-04-17T15:16:12.876Z,21.70
2018-04-17T15:18:43.703Z,21.80
2018-04-17T15:21:11.980Z,21.80
2018-04-17T15:23:40.306Z,21.90
2018-04-17T15:26:08.605Z,21.90
2018-04-17T15:28:36.879Z,21.80
2018-04-17T15:31:06.039Z,21.80
2018-04-17T15:33:34.347Z,21.70
2018-04-17T15:36:01.858Z,21.70
2018-04-17T15:38:30.153Z,21.70
2018-04-17T15:40:58.487Z,21.70
2018-04-17T15:43:27.728Z,21.80
2018-04-17T15:45:56.046Z,21.90
2018-04-17T15:48:24.328Z,22.00
2018-04-17T15:50:52.634Z,22.00
2018-04-17T15:53:23.215Z,21.90
2018-04-17T15:55:51.526Z,21.90
2018-04-17T15:58:19.783Z,21.90
2018-04-17T16:00:48.093Z,21.90
2018-04-17T16:03:16.398Z,21.90
2018-04-17T16:05:44.677Z,21.90
2018-04-17T16:08:12.940Z,21.80
2018-04-17T16:10:42.279Z,21.80
2018-04-17T16:13:11.151Z,21.70
2018-04-17T16:15:39.434Z,21.80
2018-04-17T16:18:07.700Z,21.70
2018-04-17T16:20:36.004Z,21.70
2018-04-17T16:23:04.257Z,21.60
2018-04-17T16:25:32.556Z,21.50
2018-04-17T16:28:00.092Z,21.50
2018-04-17T16:30:28.373Z,21.60
2018-04-17T16:32:56.687Z,21.70
2018-04-17T16:35:24.933Z,21.60
2018-04-17T16:37:53.319Z,21.50
2018-04-17T16:40:21.591Z,21.50
2018-04-17T16:42:49.893Z,21.60
2018-04-17T16:45:18.163Z,21.70
2018-04-17T16:47:46.455Z,21.70
2018-04-17T16:50:14.755Z,21.60
2018-04-17T16:52:43.031Z,21.60
2018-04-17T16:55:12.283Z,21.50
2018-04-17T16:57:41.357Z,21.70
2018-04-17T17:00:10.700Z,21.60
2018-04-17T17:02:39.006Z,21.50
2018-04-17T17:05:07.272Z,21.50
2018-04-17T17:07:35.572Z,21.40
2018-04-17T17:10:03.857Z,21.40
2018-04-17T17:12:32.117Z,21.30
2018-04-17T17:15:00.409Z,21.20
2018-04-17T17:17:28.678Z,21.20
2018-04-17T17:19:56.968Z,21.30
2018-04-17T17:22:25.272Z,21.40
2018-04-17T17:24:53.545Z,21.30
2018-04-17T17:27:22.528Z,21.30
2018-04-17T17:29:51.571Z,21.20
2018-04-17T17:32:20.009Z,21.20
2018-04-17T17:34:48.359Z,21.10
2018-04-17T17:37:16.686Z,21.20
2018-04-17T17:39:45.010Z,21.20
2018-04-17T17:42:13.269Z,21.00
2018-04-17T17:44:41.595Z,20.90
2018-04-17T17:47:09.978Z,20.90
2018-04-17T17:49:38.245Z,20.70
2018-04-17T17:52:06.505Z,20.70
2018-04-17T17:54:34.780Z,20.60
2018-04-17T17:57:03.068Z,20.60
2018-04-17T17:59:31.363Z,20.50
2018-04-17T18:01:59.638Z,20.40
2018-04-17T18:04:27.928Z,20.40
2018-04-17T18:06:56.197Z,20.30
2018-04-17T18:09:24.498Z,20.20
2018-04-17T18:11:53.121Z,20.10
2018-04-17T18:14:21.985Z,20.00
2018-04-17T18:16:50.258Z,20.00
2018-04-17T18:19:18.567Z,19.90
2018-04-17T18:21:46.856Z,19.80
2018-04-17T18:24:15.121Z,19.70
2018-04-17T18:26:43.444Z,19.60
2018-04-17T18:29:11.718Z,19.60
2018-04-17T18:31:40.837Z,19.50
2018-04-17T18:34:09.882Z,19.50
2018-04-17T18:36:38.226Z,19.40
2018-04-17T18:39:06.561Z,19.40
2018-04-17T18:41:34.868Z,19.20
2018-04-17T18:44:03.135Z,19.20
2018-04-17T18:46:31.421Z,19.10
2018-04-17T18:48:59.715Z,19.00
2018-04-17T18:51:28.044Z,18.80
2018-04-17T18:53:56.318Z,18.90
2018-04-17T18:56:24.609Z,18.90
2018-04-17T18:58:52.905Z,18.80
2018-04-17T19:01:21.951Z,18.70
2018-04-17T19:03:50.314Z,18.70
2018-04-17T19:06:18.587Z,18.60
2018-04-17T19:08:46.092Z,18.60
2018-04-17T19:11:14.400Z,18.50
2018-04-17T19:13:42.697Z,18.40
2018-04-17T19:16:11.794Z,18.30
2018-04-17T19:18:40.891Z,18.30
2018-04-17T19:21:09.873Z,18.20
2018-04-17T19:23:38.112Z,18.10
2018-04-17T19:26:06.415Z,18.10
2018-04-17T19:28:34.767Z,18.00
2018-04-17T19:31:03.072Z,18.00
2018-04-17T19:33:31.388Z,18.00
2018-04-17T19:35:59.668Z,17.90
2018-04-17T19:38:27.955Z,17.90
2018-04-17T19:40:56.237Z,17.90
2018-04-17T19:43:24.548Z,17.80
2018-04-17T19:45:52.873Z,17.70
2018-04-17T19:48:22.390Z,17.60
2018-04-17T19:50:51.184Z,17.60
2018-04-17T19:53:19.438Z,17.50
2018-04-17T19:55:47.739Z,17.50
2018-04-17T19:58:16.001Z,17.40
2018-04-17T20:00:44.301Z,17.40
2018-04-17T20:03:12.572Z,17.30
2018-04-17T20:05:41.733Z,17.30
2018-04-17T20:08:10.870Z,17.30
2018-04-17T20:10:39.945Z,17.30
2018-04-17T20:13:08.262Z,17.20
2018-04-17T20:15:36.532Z,17.10
2018-04-17T20:18:04.813Z,17.20
2018-04-17T20:20:33.138Z,17.20
2018-04-17T20:23:01.435Z,17.10
2018-04-17T20:25:29.750Z,17.00
2018-04-17T20:27:58.028Z,17.00
2018-04-17T20:30:26.284Z,17.00
2018-04-17T20:32:54.586Z,17.00
2018-04-17T20:35:22.876Z,16.90
2018-04-17T20:37:54.595Z,16.80
2018-04-17T20:40:23.265Z,16.80
2018-04-17T20:42:51.557Z,16.70
2018-04-17T20:45:20.793Z,16.70
2018-04-17T20:47:52.368Z,16.70
2018-04-17T20:50:21.996Z,16.60
2018-04-17T20:52:53.341Z,16.50
2018-04-17T20:55:21.646Z,16.40
2018-04-17T20:57:51.218Z,16.50
2018-04-17T21:00:20.550Z,16.40
2018-04-17T21:02:48.844Z,16.30
2018-04-17T21:05:17.114Z,16.30
2018-04-17T21:07:45.401Z,16.30
2018-04-17T21:10:13.695Z,16.30
2018-04-17T21:12:41.984Z,16.20
2018-04-17T21:15:10.264Z,16.20
2018-04-17T21:17:39.176Z,16.20
2018-04-17T21:20:07.437Z,16.20
2018-04-17T21:22:35.741Z,16.10
2018-04-17T21:25:04.008Z,16.20
2018-04-17T21:27:32.303Z,16.10
2018-04-17T21:30:00.563Z,16.00
2018-04-17T21:32:30.056Z,16.00
2018-04-17T21:34:58.346Z,15.90
2018-04-17T21:37:26.611Z,15.80
2018-04-17T21:39:54.911Z,15.80
2018-04-17T21:42:23.183Z,15.80
2018-04-17T21:44:51.475Z,15.70
2018-04-17T21:47:20.287Z,15.70
2018-04-17T21:49:48.545Z,15.60
2018-04-17T21:52:16.846Z,15.60
2018-04-17T21:54:45.118Z,15.60
2018-04-17T21:57:13.425Z,15.60
2018-04-17T21:59:41.725Z,15.60
2018-04-17T22:02:11.375Z,15.50
2018-04-17T22:04:40.642Z,15.60
2018-04-17T22:07:08.944Z,15.40
2018-04-17T22:09:37.256Z,15.40
2018-04-17T22:12:05.533Z,15.40
2018-04-17T22:14:33.840Z,15.30
2018-04-17T22:17:01.347Z,15.30
2018-04-17T22:19:29.629Z,15.30
2018-04-17T22:21:57.889Z,15.20
2018-04-17T22:24:26.203Z,15.10
2018-04-17T22:26:56.436Z,15.20
2018-04-17T22:29:24.707Z,15.10
2018-04-17T22:31:53.007Z,15.20
2018-04-17T22:34:21.265Z,15.10
2018-04-17T22:36:50.524Z,15.10
2018-04-17T22:39:18.820Z,15.00
2018-04-17T22:41:47.102Z,15.00
2018-04-17T22:44:15.372Z,15.00
2018-04-17T22:46:43.678Z,15.00
2018-04-17T22:49:11.934Z,14.90
2018-04-17T22:51:40.116Z,14.90
2018-04-17T22:54:08.415Z,14.80
2018-04-17T22:56:36.735Z,14.80
2018-04-17T22:59:04.999Z,14.90
2018-04-17T23:01:33.301Z,14.80
2018-04-17T23:04:01.587Z,14.80
2018-04-17T23:06:29.907Z,14.80
2018-04-17T23:08:58.196Z,14.70
2018-04-17T23:11:26.487Z,14.70
2018-04-17T23:13:54.798Z,14.70
2018-04-17T23:16:22.262Z,14.70
2018-04-17T23:18:51.555Z,14.60
2018-04-17T23:21:21.274Z,14.60
2018-04-17T23:23:51.514Z,14.60
2018-04-17T23:26:20.495Z,14.60
2018-04-17T23:28:48.771Z,14.50
2018-04-17T23:31:17.092Z,14.40
2018-04-17T23:33:45.370Z,14.40
2018-04-17T23:36:13.644Z,14.40
2018-04-17T23:38:41.953Z,14.40
2018-04-17T23:41:11.369Z,14.40
2018-04-17T23:43:40.339Z,14.40
2018-04-17T23:46:08.659Z,14.40
2018-04-17T23:48:36.979Z,14.40
2018-04-17T23:51:04.481Z,14.40
2018-04-17T23:53:32.747Z,14.40
2018-04-17T23:56:01.013Z,14.30
2018-04-17T23:58:29.314Z,14.30
